createdAt,value
2018-03-19T00:00:27.364Z,-2.35
2018-03-19T00:02:55.726Z,-2.35
2018-03-19T00:05:25.921Z,-2.34
2018-03-19T00:07:54.267Z,-2.32
2018-03-19T00:10:22.607Z,-2.32
2018-03-19T00:12:50.919Z,-2.30
2018-03-19T00:15:19.298Z,-2.29
2018-03-19T00:20:22.093Z,-2.33
2018-03-19T00:22:50.399Z,-2.32
2018-03-19T00:25:18.949Z,-2.29
2018-03-19T00:27:47.293Z,-2.26
2018-03-19T00:30:27.777Z,-2.26
2018-03-19T00:32:56.840Z,-2.24
2018-03-19T00:35:25.161Z,-2.24
2018-03-19T00:37:53.675Z,-2.30
2018-03-19T00:40:22.117Z,-2.36
2018-03-19T00:42:51.343Z,-2.41
2018-03-19T00:45:21.758Z,-2.39
2018-03-19T00:47:54.212Z,-2.34
2018-03-19T00:50:22.613Z,-2.34
2018-03-19T00:52:52.844Z,-2.37
2018-03-19T00:55:25.865Z,-2.45
2018-03-19T00:57:55.881Z,-2.50
2018-03-19T01:00:24.464Z,-2.52
2018-03-19T01:02:52.943Z,-2.53
2018-03-19T01:05:22.565Z,-2.55
2018-03-19T01:07:52.653Z,-2.57
2018-03-19T01:10:21.095Z,-2.54
2018-03-19T01:12:49.409Z,-2.53
2018-03-19T01:15:17.928Z,-2.53
2018-03-19T01:17:46.298Z,-2.52
2018-03-19T01:20:16.455Z,-2.51
2018-03-19T01:22:45.673Z,-2.55
2018-03-19T01:25:17.460Z,-2.57
2018-03-19T01:27:47.892Z,-2.59
2018-03-19T01:30:17.178Z,-2.60
2018-03-19T01:32:45.774Z,-2.61
2018-03-19T01:35:14.964Z,-2.62
2018-03-19T01:37:43.341Z,-2.68
2018-03-19T01:40:11.684Z,-2.68
2018-03-19T01:42:40.054Z,-2.68
2018-03-19T01:45:08.393Z,-2.67
2018-03-19T01:47:38.511Z,-2.66
2018-03-19T01:50:07.905Z,-2.65
2018-03-19T01:52:48.089Z,-2.63
2018-03-19T01:55:17.270Z,-2.61
2018-03-19T01:57:45.607Z,-2.64
2018-03-19T02:00:14.127Z,-2.65
2018-03-19T02:02:42.497Z,-2.66
2018-03-19T02:05:10.819Z,-2.64
2018-03-19T02:07:39.346Z,-2.63
2018-03-19T02:10:07.678Z,-2.64
2018-03-19T02:12:36.756Z,-2.68
2018-03-19T02:15:05.105Z,-2.65
2018-03-19T02:17:33.452Z,-2.65
2018-03-19T02:20:01.753Z,-2.65
2018-03-19T02:22:35.102Z,-2.64
2018-03-19T02:25:03.423Z,-2.64
2018-03-19T02:27:31.771Z,-2.63
2018-03-19T02:30:00.138Z,-2.64
2018-03-19T02:32:28.478Z,-2.65
2018-03-19T02:34:56.859Z,-2.66
2018-03-19T02:37:25.141Z,-2.65
2018-03-19T02:39:53.507Z,-2.64
2018-03-19T02:42:23.624Z,-2.63
2018-03-19T02:44:52.787Z,-2.63
2018-03-19T02:47:22.964Z,-2.71
2018-03-19T02:49:51.332Z,-2.74
2018-03-19T02:52:19.720Z,-2.76
2018-03-19T02:54:48.092Z,-2.73
2018-03-19T02:57:19.075Z,-2.70
2018-03-19T02:59:49.267Z,-2.70
2018-03-19T03:02:17.810Z,-2.74
2018-03-19T03:04:49.187Z,-2.75
2018-03-19T03:07:17.842Z,-2.76
2018-03-19T03:09:46.231Z,-2.77
2018-03-19T03:12:14.525Z,-2.77
2018-03-19T03:14:42.858Z,-2.84
2018-03-19T03:17:13.932Z,-2.89
2018-03-19T03:19:42.370Z,-2.89
2018-03-19T03:22:10.702Z,-2.88
2018-03-19T03:24:39.026Z,-2.91
2018-03-19T03:27:07.576Z,-2.92
2018-03-19T03:29:35.975Z,-2.90
2018-03-19T03:32:04.362Z,-2.93
2018-03-19T03:34:33.566Z,-2.95
2018-03-19T03:37:02.619Z,-2.94
2018-03-19T03:39:31.125Z,-2.94
2018-03-19T03:41:59.676Z,-2.97
2018-03-19T03:44:29.997Z,-2.97
2018-03-19T03:46:59.217Z,-3.02
2018-03-19T03:49:27.588Z,-3.04
2018-03-19T03:51:55.906Z,-3.07
2018-03-19T03:54:24.278Z,-3.07
2018-03-19T03:56:53.659Z,-3.09
2018-03-19T03:59:21.952Z,-3.10
2018-03-19T04:01:50.321Z,-3.11
2018-03-19T04:04:19.476Z,-3.10
2018-03-19T04:06:48.287Z,-3.11
2018-03-19T04:09:16.602Z,-3.11
2018-03-19T04:11:44.920Z,-3.10
2018-03-19T04:14:13.362Z,-3.11
2018-03-19T04:16:42.565Z,-3.08
2018-03-19T04:19:10.926Z,-3.11
2018-03-19T04:21:41.476Z,-3.10
2018-03-19T04:24:12.687Z,-3.09
2018-03-19T04:26:41.084Z,-3.07
2018-03-19T04:29:09.402Z,-3.07
2018-03-19T04:31:39.395Z,-3.09
2018-03-19T04:34:08.499Z,-3.14
2018-03-19T04:36:36.844Z,-3.13
2018-03-19T04:39:05.132Z,-3.11
2018-03-19T04:41:33.485Z,-3.17
2018-03-19T04:44:01.926Z,-3.18
2018-03-19T04:46:30.306Z,-3.19
2018-03-19T04:48:58.646Z,-3.26
2018-03-19T04:51:27.121Z,-3.29
2018-03-19T04:53:55.442Z,-3.30
2018-03-19T04:56:24.106Z,-3.31
2018-03-19T04:58:52.468Z,-3.28
2018-03-19T05:01:24.862Z,-3.19
2018-03-19T05:03:53.232Z,-3.16
2018-03-19T05:06:21.570Z,-3.15
2018-03-19T05:08:50.020Z,-3.16
2018-03-19T05:11:18.381Z,-3.25
2018-03-19T05:13:48.476Z,-3.27
2018-03-19T05:16:16.859Z,-3.29
2018-03-19T05:18:45.174Z,-3.31
2018-03-19T05:21:13.564Z,-3.32
2018-03-19T05:23:41.921Z,-3.31
2018-03-19T05:26:10.482Z,-3.36
2018-03-19T05:28:38.860Z,-3.38
2018-03-19T05:31:07.276Z,-3.37
2018-03-19T05:33:37.628Z,-3.39
2018-03-19T05:36:05.962Z,-3.32
2018-03-19T05:38:34.426Z,-3.32
2018-03-19T05:41:02.863Z,-3.33
2018-03-19T05:43:32.945Z,-3.34
2018-03-19T05:46:01.297Z,-3.33
2018-03-19T05:48:31.264Z,-3.33
2018-03-19T05:50:59.603Z,-3.32
2018-03-19T05:53:29.647Z,-3.32
2018-03-19T05:55:58.101Z,-3.31
2018-03-19T05:58:26.479Z,-3.29
2018-03-19T06:00:55.145Z,-3.25
2018-03-19T06:03:23.479Z,-3.23
2018-03-19T06:05:51.834Z,-3.20
2018-03-19T06:08:20.270Z,-3.18
2018-03-19T06:10:48.930Z,-3.14
2018-03-19T06:13:17.789Z,-3.17
2018-03-19T06:15:46.175Z,-3.19
2018-03-19T06:18:14.622Z,-3.20
2018-03-19T06:20:42.993Z,-3.19
2018-03-19T06:23:11.353Z,-3.18
2018-03-19T06:25:39.733Z,-3.25
2018-03-19T06:28:08.144Z,-3.23
2018-03-19T06:30:36.453Z,-3.22
2018-03-19T06:33:04.943Z,-3.22
2018-03-19T06:35:33.321Z,-3.20
2018-03-19T06:38:02.181Z,-3.22
2018-03-19T06:40:32.539Z,-3.15
2018-03-19T06:43:01.038Z,-3.18
2018-03-19T06:45:29.419Z,-3.07
2018-03-19T06:47:57.767Z,-3.13
2018-03-19T06:50:27.026Z,-3.11
2018-03-19T06:52:55.315Z,-3.12
2018-03-19T06:55:26.878Z,-3.10
2018-03-19T06:57:55.256Z,-3.08
2018-03-19T07:00:25.539Z,-3.08
2018-03-19T07:02:55.588Z,-3.11
2018-03-19T07:05:24.171Z,-3.01
2018-03-19T07:07:52.527Z,-2.95
2018-03-19T07:10:22.529Z,-2.93
2018-03-19T07:12:50.953Z,-2.87
2018-03-19T07:15:20.920Z,-2.82
2018-03-19T07:17:49.343Z,-2.79
2018-03-19T07:20:17.711Z,-2.77
2018-03-19T07:22:46.053Z,-2.71
2018-03-19T07:25:14.399Z,-2.71
2018-03-19T07:27:42.870Z,-2.71
2018-03-19T07:30:11.284Z,-2.75
2018-03-19T07:32:39.614Z,-2.74
2018-03-19T07:35:09.016Z,-2.71
2018-03-19T07:37:37.301Z,-2.73
2018-03-19T07:40:08.126Z,-2.72
2018-03-19T07:42:40.380Z,-2.67
2018-03-19T07:45:08.757Z,-2.59
2018-03-19T07:47:37.831Z,-2.57
2018-03-19T07:50:08.364Z,-2.58
2018-03-19T07:52:36.866Z,-2.58
2018-03-19T07:55:05.343Z,-2.59
2018-03-19T07:57:35.608Z,-2.56
2018-03-19T08:00:06.447Z,-2.54
2018-03-19T08:02:37.497Z,-2.49
2018-03-19T08:05:06.030Z,-2.45
2018-03-19T08:07:34.351Z,-2.42
2018-03-19T08:10:02.676Z,-2.47
2018-03-19T08:12:30.986Z,-2.42
2018-03-19T08:15:01.108Z,-2.32
2018-03-19T08:17:29.643Z,-2.23
2018-03-19T08:19:57.981Z,-2.22
2018-03-19T08:22:27.238Z,-2.21
2018-03-19T08:24:55.587Z,-2.20
2018-03-19T08:27:23.976Z,-2.20
2018-03-19T08:29:54.139Z,-2.20
2018-03-19T08:32:22.736Z,-2.15
2018-03-19T08:34:51.102Z,-2.17
2018-03-19T08:37:21.199Z,-2.22
2018-03-19T08:39:49.578Z,-2.26
2018-03-19T08:42:17.920Z,-2.27
2018-03-19T08:44:46.262Z,-2.26
2018-03-19T08:47:14.583Z,-2.18
2018-03-19T08:49:43.084Z,-2.11
2018-03-19T08:52:11.417Z,-2.04
2018-03-19T08:54:39.737Z,-2.02
2018-03-19T08:57:08.066Z,-2.01
2018-03-19T08:59:36.439Z,-2.10
2018-03-19T09:02:07.594Z,-2.20
2018-03-19T09:04:38.717Z,-2.09
2018-03-19T09:07:09.710Z,-2.02
2018-03-19T09:09:38.253Z,-1.98
2018-03-19T09:12:10.189Z,-2.08
2018-03-19T09:14:47.779Z,-2.08
2018-03-19T09:17:19.677Z,-2.04
2018-03-19T09:19:49.060Z,-1.92
2018-03-19T09:22:18.380Z,-1.78
2018-03-19T09:24:53.204Z,-1.70
2018-03-19T09:27:22.706Z,-1.71
2018-03-19T09:29:51.080Z,-1.72
2018-03-19T09:32:19.474Z,-1.78
2018-03-19T09:34:47.872Z,-1.68
2018-03-19T09:37:21.396Z,-1.62
2018-03-19T09:39:51.627Z,-1.65
2018-03-19T09:42:19.938Z,-1.68
2018-03-19T09:44:48.302Z,-1.70
2018-03-19T09:47:17.338Z,-1.67
2018-03-19T09:49:45.721Z,-1.78
2018-03-19T09:52:14.203Z,-1.67
2018-03-19T09:54:42.600Z,-1.63
2018-03-19T09:57:12.767Z,-1.57
2018-03-19T09:59:41.155Z,-1.62
2018-03-19T10:02:09.470Z,-1.61
2018-03-19T10:04:38.315Z,-1.57
2018-03-19T10:07:06.618Z,-1.59
2018-03-19T10:09:35.054Z,-1.58
2018-03-19T10:12:03.505Z,-1.50
2018-03-19T10:14:32.060Z,-1.43
2018-03-19T10:17:00.406Z,-1.50
2018-03-19T10:19:28.926Z,-1.45
2018-03-19T10:21:59.112Z,-1.48
2018-03-19T10:24:27.478Z,-1.56
2018-03-19T10:26:58.438Z,-1.52
2018-03-19T10:29:26.802Z,-1.46
2018-03-19T10:31:55.120Z,-1.42
2018-03-19T10:34:23.480Z,-1.34
2018-03-19T10:36:51.808Z,-1.26
2018-03-19T10:39:20.110Z,-1.22
2018-03-19T10:41:48.806Z,-1.12
2018-03-19T10:44:17.117Z,-1.05
2018-03-19T10:46:45.419Z,-1.02
2018-03-19T10:49:13.771Z,-1.07
2018-03-19T10:51:42.078Z,-1.03
2018-03-19T10:54:10.526Z,-0.99
2018-03-19T10:56:40.645Z,-0.91
2018-03-19T10:59:10.016Z,-0.88
2018-03-19T11:01:43.399Z,-0.84
2018-03-19T11:04:14.281Z,-1.01
2018-03-19T11:20:31.433Z,-1.08
2018-03-19T11:23:00.667Z,-0.95
2018-03-19T11:25:29.120Z,-0.79
2018-03-19T11:27:57.441Z,-0.67
2018-03-19T11:30:25.827Z,-0.63
2018-03-19T11:32:55.172Z,-0.62
2018-03-19T11:35:25.674Z,-0.68
2018-03-19T11:37:56.366Z,-0.81
2018-03-19T11:40:24.654Z,-0.74
2018-03-19T11:42:53.279Z,-0.70
2018-03-19T11:45:21.656Z,-0.61
2018-03-19T11:47:52.219Z,-0.62
2018-03-19T11:50:20.738Z,-0.57
2018-03-19T11:52:49.931Z,-0.57
2018-03-19T11:55:18.423Z,-0.58
2018-03-19T11:57:49.362Z,-0.52
2018-03-19T12:00:19.528Z,-0.60
2018-03-19T12:02:47.920Z,-0.66
2018-03-19T12:05:16.397Z,-0.64
2018-03-19T12:07:45.526Z,-0.64
2018-03-19T12:10:14.579Z,-0.63
2018-03-19T12:12:44.638Z,-0.61
2018-03-19T12:15:15.608Z,-0.77
2018-03-19T12:17:44.177Z,-0.87
2018-03-19T12:20:12.739Z,-0.95
2018-03-19T12:22:41.107Z,-0.97
2018-03-19T12:25:09.488Z,-0.86
2018-03-19T12:27:37.811Z,-0.84
2018-03-19T12:30:06.179Z,-0.97
2018-03-19T12:32:34.544Z,-0.94
2018-03-19T12:35:03.115Z,-0.97
2018-03-19T12:37:32.253Z,-1.25
2018-03-19T12:40:00.617Z,-1.25
2018-03-19T12:42:28.978Z,-1.18
2018-03-19T12:44:57.670Z,-1.12
2018-03-19T12:47:26.187Z,-1.11
2018-03-19T12:49:54.580Z,-1.08
2018-03-19T12:52:22.936Z,-1.02
2018-03-19T12:54:52.137Z,-0.98
2018-03-19T12:57:20.658Z,-1.02
2018-03-19T12:59:50.225Z,-1.00
2018-03-19T13:02:18.560Z,-1.07
2018-03-19T13:04:46.926Z,-1.10
2018-03-19T13:07:16.312Z,-1.19
2018-03-19T13:09:44.646Z,-1.23
2018-03-19T13:12:13.000Z,-1.18
2018-03-19T13:14:41.367Z,-1.07
2018-03-19T13:17:09.740Z,-0.95
2018-03-19T13:19:38.130Z,-0.98
2018-03-19T13:22:06.509Z,-0.94
2018-03-19T13:24:38.429Z,-0.90
2018-03-19T13:27:08.069Z,-0.96
2018-03-19T13:29:37.224Z,-0.97
2018-03-19T13:32:05.544Z,-0.95
2018-03-19T13:34:35.279Z,-0.93
2018-03-19T13:37:05.340Z,-0.98
2018-03-19T13:39:33.833Z,-0.94
2018-03-19T13:42:02.295Z,-0.99
2018-03-19T13:44:30.835Z,-1.07
2018-03-19T13:47:00.029Z,-1.11
2018-03-19T13:49:28.429Z,-1.13
2018-03-19T13:51:56.849Z,-1.10
2018-03-19T13:54:27.757Z,-1.10
2018-03-19T13:56:56.145Z,-1.09
2018-03-19T13:59:26.190Z,-1.12
2018-03-19T14:01:54.553Z,-1.06
2018-03-19T14:04:22.979Z,-1.02
2018-03-19T14:06:51.981Z,-1.13
2018-03-19T14:09:20.382Z,-1.25
2018-03-19T14:11:49.584Z,-1.31
2018-03-19T14:14:18.992Z,-1.35
2018-03-19T14:16:47.375Z,-1.39
2018-03-19T14:19:15.734Z,-1.40
2018-03-19T14:21:44.048Z,-1.31
2018-03-19T14:24:12.341Z,-1.23
2018-03-19T14:26:40.693Z,-1.21
2018-03-19T14:29:08.997Z,-1.10
2018-03-19T14:31:37.325Z,-1.13
2018-03-19T14:34:06.465Z,-1.13
2018-03-19T14:36:34.882Z,-1.22
2018-03-19T14:39:03.284Z,-1.22
2018-03-19T14:41:31.583Z,-1.20
2018-03-19T14:43:59.999Z,-1.21
2018-03-19T14:46:29.084Z,-1.20
2018-03-19T14:48:59.215Z,-1.19
2018-03-19T14:51:27.674Z,-1.19
2018-03-19T14:53:56.230Z,-1.16
2018-03-19T14:56:26.323Z,-1.13
2018-03-19T14:58:54.709Z,-1.23
2018-03-19T15:01:23.097Z,-1.19
2018-03-19T15:03:51.392Z,-1.18
2018-03-19T15:06:19.752Z,-1.21
2018-03-19T15:08:48.171Z,-1.30
2018-03-19T15:11:16.545Z,-1.38
2018-03-19T15:13:44.971Z,-1.41
2018-03-19T15:16:13.339Z,-1.40
2018-03-19T15:18:41.675Z,-1.39
2018-03-19T15:21:10.079Z,-1.35
2018-03-19T15:23:40.531Z,-1.30
2018-03-19T15:26:09.823Z,-1.29
2018-03-19T15:28:38.351Z,-1.26
2018-03-19T15:31:06.725Z,-1.18
2018-03-19T15:33:35.059Z,-1.19
2018-03-19T15:36:03.385Z,-1.26
2018-03-19T15:38:31.752Z,-1.23
2018-03-19T15:41:00.106Z,-1.18
2018-03-19T15:43:28.575Z,-1.23
2018-03-19T15:45:57.021Z,-1.30
2018-03-19T15:48:25.457Z,-1.37
2018-03-19T15:50:54.541Z,-1.44
2018-03-19T15:53:22.860Z,-1.53
2018-03-19T15:55:51.162Z,-1.53
2018-03-19T15:58:19.523Z,-1.44
2018-03-19T16:00:47.882Z,-1.39
2018-03-19T16:03:16.333Z,-1.40
2018-03-19T16:05:45.407Z,-1.43
2018-03-19T16:08:15.343Z,-1.57
2018-03-19T16:10:43.674Z,-1.55
2018-03-19T16:13:12.074Z,-1.54
2018-03-19T16:15:40.421Z,-1.63
2018-03-19T16:18:09.555Z,-1.67
2018-03-19T16:20:38.117Z,-1.65
2018-03-19T16:23:06.468Z,-1.62
2018-03-19T16:25:34.813Z,-1.61
2018-03-19T16:28:03.147Z,-1.62
2018-03-19T16:30:31.510Z,-1.64
2018-03-19T16:32:59.820Z,-1.68
2018-03-19T16:35:28.279Z,-1.70
2018-03-19T16:37:56.782Z,-1.72
2018-03-19T16:40:25.093Z,-1.72
2018-03-19T16:42:53.489Z,-1.71
2018-03-19T16:45:22.562Z,-1.68
2018-03-19T16:47:50.892Z,-1.69
2018-03-19T16:50:19.257Z,-1.66
2018-03-19T16:52:49.436Z,-1.73
2018-03-19T16:55:17.813Z,-1.93
2018-03-19T16:57:48.687Z,-1.94
2018-03-19T17:00:17.133Z,-1.92
2018-03-19T17:02:45.481Z,-1.87
2018-03-19T17:05:15.602Z,-1.84
2018-03-19T17:07:43.959Z,-1.83
2018-03-19T17:10:12.366Z,-1.84
2018-03-19T17:12:40.810Z,-1.87
2018-03-19T17:15:09.286Z,-1.92
2018-03-19T17:17:38.799Z,-1.95
2018-03-19T17:20:07.151Z,-1.97
2018-03-19T17:22:37.253Z,-1.99
2018-03-19T17:25:05.626Z,-2.00
2018-03-19T17:27:33.990Z,-1.98
2018-03-19T17:30:03.449Z,-2.04
2018-03-19T17:32:33.526Z,-2.07
2018-03-19T17:35:02.097Z,-2.09
2018-03-19T17:37:31.423Z,-2.11
2018-03-19T17:39:59.931Z,-2.14
2018-03-19T17:42:28.306Z,-2.11
2018-03-19T17:44:58.404Z,-2.10
2018-03-19T17:47:26.953Z,-2.13
2018-03-19T17:49:56.173Z,-2.13
2018-03-19T17:52:24.606Z,-2.12
2018-03-19T17:54:55.397Z,-2.13
2018-03-19T17:57:23.805Z,-2.18
2018-03-19T17:59:54.496Z,-2.26
2018-03-19T18:02:24.659Z,-2.24
2018-03-19T18:04:53.037Z,-2.23
2018-03-19T18:07:23.222Z,-2.24
2018-03-19T18:09:53.420Z,-2.25
2018-03-19T18:12:21.869Z,-2.29
2018-03-19T18:14:50.332Z,-2.31
2018-03-19T18:17:18.687Z,-2.32
2018-03-19T18:19:47.082Z,-2.35
2018-03-19T18:22:15.451Z,-2.36
2018-03-19T18:24:44.155Z,-2.38
2018-03-19T18:27:12.607Z,-2.37
2018-03-19T18:29:42.894Z,-2.37
2018-03-19T18:32:14.511Z,-2.40
2018-03-19T18:34:42.888Z,-2.42
2018-03-19T18:37:11.975Z,-2.41
2018-03-19T18:39:40.301Z,-2.42
2018-03-19T18:42:08.748Z,-2.47
2018-03-19T18:44:37.230Z,-2.50
2018-03-19T18:47:06.544Z,-2.53
2018-03-19T18:49:34.878Z,-2.53
2018-03-19T18:52:05.884Z,-2.56
2018-03-19T18:54:34.990Z,-2.57
2018-03-19T18:57:03.591Z,-2.55
2018-03-19T18:59:34.267Z,-2.55
2018-03-19T19:02:03.379Z,-2.55
2018-03-19T19:04:31.842Z,-2.56
2018-03-19T19:07:00.207Z,-2.56
2018-03-19T19:09:28.578Z,-2.54
2018-03-19T19:11:56.940Z,-2.58
2018-03-19T19:14:25.296Z,-2.59
2018-03-19T19:16:53.665Z,-2.61
2018-03-19T19:19:22.096Z,-2.60
2018-03-19T19:21:50.634Z,-2.61
2018-03-19T19:24:20.777Z,-2.60
2018-03-19T19:26:49.764Z,-2.60
2018-03-19T19:29:18.183Z,-2.55
2018-03-19T19:31:46.841Z,-2.55
2018-03-19T19:34:15.205Z,-2.51
2018-03-19T19:36:43.683Z,-2.53
2018-03-19T19:39:11.988Z,-2.55
2018-03-19T19:41:40.384Z,-2.50
2018-03-19T19:44:09.978Z,-2.49
2018-03-19T19:46:38.482Z,-2.50
2018-03-19T19:49:08.533Z,-2.50
2018-03-19T19:51:36.879Z,-2.51
2018-03-19T19:54:05.251Z,-2.51
2018-03-19T19:56:34.395Z,-2.47
2018-03-19T19:59:05.591Z,-2.46
2018-03-19T20:01:33.977Z,-2.52
2018-03-19T20:04:02.286Z,-2.53
2018-03-19T20:06:30.676Z,-2.54
2018-03-19T20:08:59.217Z,-2.55
2018-03-19T20:11:27.596Z,-2.56
2018-03-19T20:13:55.911Z,-2.59
2018-03-19T20:16:24.275Z,-2.59
2018-03-19T20:18:52.742Z,-2.53
2018-03-19T20:21:21.143Z,-2.53
2018-03-19T20:23:49.520Z,-2.57
2018-03-19T20:26:19.606Z,-2.58
2018-03-19T20:28:48.726Z,-2.55
2018-03-19T20:31:17.086Z,-2.51
2018-03-19T20:33:45.499Z,-2.50
2018-03-19T20:36:14.126Z,-2.49
2018-03-19T20:38:42.501Z,-2.47
2018-03-19T20:41:10.926Z,-2.53
2018-03-19T20:43:41.228Z,-2.62
2018-03-19T20:46:13.675Z,-2.68
2018-03-19T20:48:42.434Z,-2.67
2018-03-19T20:51:10.895Z,-2.66
2018-03-19T20:53:39.248Z,-2.61
2018-03-19T20:56:09.370Z,-2.58
2018-03-19T20:58:37.907Z,-2.66
2018-03-19T21:01:06.989Z,-2.71
2018-03-19T21:03:35.485Z,-2.75
2018-03-19T21:06:05.432Z,-2.76
2018-03-19T21:08:33.891Z,-2.77
2018-03-19T21:11:02.375Z,-2.81
2018-03-19T21:13:30.754Z,-2.81
2018-03-19T21:16:01.290Z,-2.83
2018-03-19T21:18:29.743Z,-2.88
2018-03-19T21:20:58.098Z,-2.89
2018-03-19T21:23:26.441Z,-2.92
2018-03-19T21:25:54.912Z,-2.92
2018-03-19T21:28:23.491Z,-2.94
2018-03-19T21:30:52.904Z,-2.94
2018-03-19T21:33:21.239Z,-2.97
2018-03-19T21:35:49.557Z,-3.01
2018-03-19T21:38:17.878Z,-3.07
2018-03-19T21:40:46.233Z,-3.04
2018-03-19T21:43:14.581Z,-3.01
2018-03-19T21:45:42.943Z,-3.00
2018-03-19T21:48:11.253Z,-3.01
2018-03-19T21:50:39.590Z,-3.02
2018-03-19T21:53:07.870Z,-3.06
2018-03-19T21:55:36.239Z,-3.14
2018-03-19T21:58:04.593Z,-3.15
2018-03-19T22:00:34.737Z,-3.18
2018-03-19T22:03:05.267Z,-3.17
2018-03-19T22:05:39.397Z,-3.18
2018-03-19T22:08:12.000Z,-3.19
2018-03-19T22:10:42.180Z,-3.17
2018-03-19T22:13:10.838Z,-3.15
2018-03-19T22:15:43.491Z,-3.18
2018-03-19T22:18:13.200Z,-3.19
2018-03-19T22:20:45.524Z,-3.14
2018-03-19T22:23:16.775Z,-3.07
2018-03-19T22:25:48.613Z,-3.03
2018-03-19T22:28:18.708Z,-2.99
2018-03-19T22:30:51.302Z,-2.98
2018-03-19T22:33:20.132Z,-2.97
2018-03-19T22:35:48.445Z,-2.93
2018-03-19T22:38:16.828Z,-2.88
2018-03-19T22:40:45.383Z,-2.89
2018-03-19T22:43:13.735Z,-2.88
2018-03-19T22:45:42.119Z,-2.86
2018-03-19T22:48:10.475Z,-2.87
2018-03-19T22:50:42.638Z,-2.84
2018-03-19T22:53:11.032Z,-2.82
2018-03-19T22:55:39.368Z,-2.83
2018-03-19T22:58:09.550Z,-2.83
2018-03-19T23:00:38.048Z,-2.83
2018-03-19T23:03:07.230Z,-2.85
2018-03-19T23:05:36.624Z,-2.84
2018-03-19T23:08:05.018Z,-2.84
2018-03-19T23:10:33.369Z,-2.88
2018-03-19T23:13:01.818Z,-2.92
2018-03-19T23:15:30.152Z,-2.91
2018-03-19T23:17:59.494Z,-2.91
2018-03-19T23:20:27.977Z,-2.89
2018-03-19T23:22:56.462Z,-2.87
2018-03-19T23:25:24.973Z,-2.87
2018-03-19T23:27:53.297Z,-2.85
2018-03-19T23:30:22.764Z,-2.84
2018-03-19T23:32:51.096Z,-2.82
2018-03-19T23:35:19.540Z,-2.82
2018-03-19T23:37:47.992Z,-2.82
2018-03-19T23:40:16.310Z,-2.83
2018-03-19T23:42:44.715Z,-2.83
2018-03-19T23:45:13.016Z,-2.83
2018-03-19T23:47:41.372Z,-2.83
2018-03-19T23:50:09.868Z,-2.82
2018-03-19T23:52:38.179Z,-2.82
2018-03-19T23:55:08.164Z,-2.82
2018-03-19T23:57:36.549Z,-2.82
